createdAt,value
2017-09-24T00:00:27.223Z,13.75
2017-09-24T00:02:56.753Z,13.72
2017-09-24T00:05:29.844Z,13.62
2017-09-24T00:07:59.590Z,13.48
2017-09-24T00:10:28.775Z,13.47
2017-09-24T00:12:57.953Z,13.51
2017-09-24T00:15:28.557Z,13.52
2017-09-24T00:17:57.894Z,13.47
2017-09-24T00:20:29.218Z,13.66
2017-09-24T00:22:58.440Z,13.67
2017-09-24T00:25:28.679Z,13.55
2017-09-24T00:27:58.233Z,13.62
2017-09-24T00:30:28.550Z,13.72
2017-09-24T00:32:57.787Z,13.85
2017-09-24T00:35:28.913Z,13.64
2017-09-24T00:37:58.368Z,13.57
2017-09-24T00:40:30.562Z,13.41
2017-09-24T00:42:59.990Z,13.31
2017-09-24T00:45:29.799Z,13.45
2017-09-24T00:47:59.335Z,13.48
2017-09-24T00:50:30.730Z,13.54
2017-09-24T00:53:00.298Z,13.77
2017-09-24T00:55:30.398Z,13.84
2017-09-24T00:58:00.142Z,13.88
2017-09-24T01:00:30.317Z,13.93
2017-09-24T01:02:59.460Z,13.98
2017-09-24T01:05:30.343Z,13.99
2017-09-24T01:07:59.687Z,13.73
2017-09-24T01:10:30.263Z,13.88
2017-09-24T01:12:59.719Z,13.94
2017-09-24T01:15:30.830Z,13.63
2017-09-24T01:18:00.028Z,13.53
2017-09-24T01:20:31.134Z,13.69
2017-09-24T01:23:00.634Z,13.63
2017-09-24T01:25:31.446Z,13.60
2017-09-24T01:28:01.274Z,13.73
2017-09-24T01:30:33.026Z,13.79
2017-09-24T01:33:02.318Z,13.88
2017-09-24T01:35:35.779Z,13.92
2017-09-24T01:38:05.275Z,13.90
2017-09-24T01:40:34.590Z,13.92
2017-09-24T01:43:04.074Z,13.93
2017-09-24T01:45:34.857Z,13.88
2017-09-24T01:48:04.075Z,13.89
2017-09-24T01:50:34.211Z,13.89
2017-09-24T01:53:03.682Z,13.91
2017-09-24T01:55:33.276Z,13.89
2017-09-24T01:58:03.193Z,13.89
2017-09-24T02:00:36.014Z,13.87
2017-09-24T02:03:05.508Z,13.37
2017-09-24T02:05:35.735Z,13.15
2017-09-24T02:08:05.370Z,13.38
2017-09-24T02:10:35.277Z,13.56
2017-09-24T02:13:04.962Z,13.42
2017-09-24T02:15:34.531Z,13.49
2017-09-24T02:18:03.712Z,13.33
2017-09-24T02:20:36.310Z,13.18
2017-09-24T02:23:05.478Z,13.18
2017-09-24T02:25:34.830Z,13.00
2017-09-24T02:28:04.681Z,13.11
2017-09-24T02:30:34.010Z,13.07
2017-09-24T02:33:03.507Z,13.04
2017-09-24T02:35:34.690Z,12.91
2017-09-24T02:38:03.974Z,12.90
2017-09-24T02:40:34.415Z,13.08
2017-09-24T02:43:04.215Z,12.89
2017-09-24T02:45:34.776Z,12.86
2017-09-24T02:48:04.274Z,13.09
2017-09-24T02:50:35.051Z,13.06
2017-09-24T02:53:04.240Z,13.01
2017-09-24T02:55:35.030Z,12.96
2017-09-24T02:58:04.603Z,12.86
2017-09-24T03:00:36.246Z,12.63
2017-09-24T03:03:05.575Z,12.56
2017-09-24T03:05:36.265Z,12.51
2017-09-24T03:08:05.684Z,12.50
2017-09-24T03:10:36.274Z,12.46
2017-09-24T03:13:05.731Z,12.43
2017-09-24T03:15:36.626Z,12.66
2017-09-24T03:18:05.887Z,12.60
2017-09-24T03:20:36.522Z,12.50
2017-09-24T03:23:05.747Z,12.42
2017-09-24T03:25:35.912Z,12.41
2017-09-24T03:28:05.407Z,12.59
2017-09-24T03:30:37.954Z,12.70
2017-09-24T03:33:07.461Z,12.30
2017-09-24T03:35:36.819Z,12.59
2017-09-24T03:38:06.481Z,12.69
2017-09-24T03:40:37.398Z,12.62
2017-09-24T03:43:06.924Z,12.69
2017-09-24T03:45:37.589Z,12.61
2017-09-24T03:48:07.318Z,12.39
2017-09-24T03:50:37.230Z,12.63
2017-09-24T03:53:06.563Z,12.11
2017-09-24T03:55:37.827Z,12.25
2017-09-24T03:58:07.107Z,12.46
2017-09-24T04:00:37.738Z,12.31
2017-09-24T04:03:07.834Z,12.45
2017-09-24T04:05:38.190Z,12.49
2017-09-24T04:08:07.508Z,12.52
2017-09-24T04:10:38.548Z,12.51
2017-09-24T04:13:08.348Z,12.53
2017-09-24T04:15:38.688Z,12.51
2017-09-24T04:18:08.203Z,12.50
2017-09-24T04:20:39.342Z,12.47
2017-09-24T04:23:09.031Z,12.45
2017-09-24T04:25:39.111Z,12.40
2017-09-24T04:28:08.566Z,12.02
2017-09-24T04:30:39.822Z,12.11
2017-09-24T04:33:09.275Z,12.18
2017-09-24T04:35:40.230Z,12.21
2017-09-24T04:38:10.052Z,12.10
2017-09-24T04:40:40.587Z,11.80
2017-09-24T04:43:09.746Z,12.03
2017-09-24T04:45:42.573Z,12.18
2017-09-24T04:48:11.998Z,12.23
2017-09-24T04:50:41.364Z,12.29
2017-09-24T04:53:11.087Z,12.36
2017-09-24T04:55:40.714Z,12.33
2017-09-24T04:58:10.198Z,12.37
2017-09-24T05:00:40.842Z,12.43
2017-09-24T05:03:10.522Z,12.27
2017-09-24T05:05:40.962Z,11.91
2017-09-24T05:08:10.464Z,12.23
2017-09-24T05:10:41.923Z,12.38
2017-09-24T05:13:11.234Z,12.46
2017-09-24T05:15:42.666Z,12.52
2017-09-24T05:18:12.538Z,12.53
2017-09-24T05:20:41.833Z,12.53
2017-09-24T05:23:11.261Z,12.58
2017-09-24T05:25:41.661Z,12.62
2017-09-24T05:28:10.817Z,12.65
2017-09-24T05:30:41.466Z,12.68
2017-09-24T05:33:10.982Z,12.65
2017-09-24T05:35:42.082Z,12.61
2017-09-24T05:38:11.524Z,12.66
2017-09-24T05:40:41.702Z,12.54
2017-09-24T05:43:11.242Z,12.64
2017-09-24T05:45:42.178Z,12.22
2017-09-24T05:48:11.328Z,12.04
2017-09-24T05:50:42.357Z,11.97
2017-09-24T05:53:11.702Z,12.18
2017-09-24T05:55:42.368Z,12.45
2017-09-24T05:58:11.971Z,12.68
2017-09-24T06:00:42.581Z,12.76
2017-09-24T06:03:12.282Z,12.84
2017-09-24T06:05:43.742Z,12.89
2017-09-24T06:08:13.731Z,12.93
2017-09-24T06:10:43.434Z,12.98
2017-09-24T06:13:13.158Z,13.02
2017-09-24T06:15:44.016Z,12.60
2017-09-24T06:18:13.174Z,12.33
2017-09-24T06:20:43.694Z,12.12
2017-09-24T06:23:13.313Z,12.16
2017-09-24T06:25:44.103Z,12.43
2017-09-24T06:28:13.822Z,12.59
2017-09-24T06:30:44.694Z,12.76
2017-09-24T06:33:13.882Z,12.31
2017-09-24T06:35:45.702Z,12.45
2017-09-24T06:38:15.100Z,12.17
2017-09-24T06:40:44.554Z,12.13
2017-09-24T06:43:14.519Z,12.30
2017-09-24T06:45:45.132Z,12.27
2017-09-24T06:48:14.427Z,12.55
2017-09-24T06:50:45.437Z,12.74
2017-09-24T06:53:14.860Z,12.90
2017-09-24T06:55:45.222Z,12.99
2017-09-24T06:58:15.315Z,13.08
2017-09-24T07:00:45.508Z,13.14
2017-09-24T07:03:15.079Z,13.19
2017-09-24T07:05:45.967Z,13.16
2017-09-24T07:08:15.584Z,13.26
2017-09-24T07:10:46.163Z,13.32
2017-09-24T07:13:15.977Z,13.16
2017-09-24T07:15:45.937Z,12.81
2017-09-24T07:18:15.604Z,12.55
2017-09-24T07:20:46.556Z,12.58
2017-09-24T07:23:15.864Z,12.74
2017-09-24T07:25:46.670Z,12.88
2017-09-24T07:28:16.590Z,12.87
2017-09-24T07:30:46.755Z,12.79
2017-09-24T07:33:16.467Z,12.90
2017-09-24T07:35:46.910Z,12.86
2017-09-24T07:38:16.706Z,12.92
2017-09-24T07:40:47.647Z,12.91
2017-09-24T07:43:17.476Z,12.89
2017-09-24T07:45:47.579Z,12.94
2017-09-24T07:48:16.827Z,12.85
2017-09-24T07:50:47.702Z,12.90
2017-09-24T07:53:17.400Z,12.90
2017-09-24T07:55:47.630Z,12.92
2017-09-24T07:58:17.191Z,12.97
2017-09-24T08:00:47.870Z,13.05
2017-09-24T08:03:17.238Z,12.99
2017-09-24T08:05:48.638Z,13.03
2017-09-24T08:08:18.465Z,13.12
2017-09-24T08:10:48.866Z,13.07
2017-09-24T08:13:18.730Z,13.18
2017-09-24T08:15:49.074Z,13.40
2017-09-24T08:18:18.680Z,13.44
2017-09-24T08:20:48.462Z,13.61
2017-09-24T08:23:18.178Z,13.67
2017-09-24T08:25:48.791Z,13.73
2017-09-24T08:28:18.354Z,13.85
2017-09-24T08:30:49.555Z,14.07
2017-09-24T08:33:18.938Z,14.21
2017-09-24T08:35:49.403Z,14.18
2017-09-24T08:38:19.024Z,14.16
2017-09-24T08:40:49.356Z,14.29
2017-09-24T08:43:18.978Z,14.62
2017-09-24T08:45:51.074Z,14.84
2017-09-24T08:48:20.611Z,14.91
2017-09-24T08:50:51.262Z,15.13
2017-09-24T08:53:20.596Z,14.97
2017-09-24T08:55:49.917Z,15.34
2017-09-24T08:58:19.965Z,15.52
2017-09-24T09:00:50.522Z,15.50
2017-09-24T09:03:19.945Z,15.36
2017-09-24T09:05:50.407Z,15.75
2017-09-24T09:08:19.774Z,15.89
2017-09-24T09:10:51.070Z,15.85
2017-09-24T09:13:20.677Z,15.40
2017-09-24T09:15:51.446Z,14.87
2017-09-24T09:18:20.734Z,15.51
2017-09-24T09:20:51.319Z,15.43
2017-09-24T09:23:20.623Z,15.70
2017-09-24T09:25:51.580Z,16.16
2017-09-24T09:28:21.403Z,16.38
2017-09-24T09:30:51.859Z,16.64
2017-09-24T09:33:23.011Z,16.72
2017-09-24T09:35:52.727Z,16.02
2017-09-24T09:38:22.395Z,15.96
2017-09-24T09:40:52.391Z,15.38
2017-09-24T09:43:31.821Z,15.57
2017-09-24T09:46:01.672Z,15.83
2017-09-24T09:48:31.450Z,15.61
2017-09-24T09:51:00.619Z,15.32
2017-09-24T09:53:30.099Z,16.07
2017-09-24T09:56:00.245Z,16.48
2017-09-24T09:58:29.749Z,15.53
2017-09-24T10:00:59.578Z,15.38
2017-09-24T10:03:28.999Z,15.74
2017-09-24T10:05:58.177Z,15.86
2017-09-24T10:10:40.787Z,15.14
2017-09-24T10:13:10.082Z,15.78
2017-09-24T10:15:39.726Z,15.43
2017-09-24T10:18:09.331Z,15.38
2017-09-24T10:20:38.836Z,15.35
2017-09-24T10:23:08.344Z,15.15
2017-09-24T10:25:38.018Z,15.17
2017-09-24T10:28:15.914Z,15.15
2017-09-24T10:30:57.694Z,15.29
2017-09-24T10:33:27.249Z,15.37
2017-09-24T10:35:56.679Z,15.58
2017-09-24T10:38:25.953Z,15.71
2017-09-24T10:40:55.519Z,15.12
2017-09-24T10:43:24.799Z,15.24
2017-09-24T10:45:55.286Z,15.30
2017-09-24T10:48:25.037Z,15.45
2017-09-24T10:50:55.938Z,15.87
2017-09-24T10:53:25.148Z,15.76
2017-09-24T10:55:55.159Z,16.01
2017-09-24T10:58:24.351Z,16.88
2017-09-24T11:00:54.875Z,16.32
2017-09-24T11:03:24.376Z,16.40
2017-09-24T11:05:55.320Z,16.50
2017-09-24T11:08:24.502Z,17.02
2017-09-24T11:10:56.156Z,17.41
2017-09-24T11:13:25.320Z,17.12
2017-09-24T11:15:55.828Z,16.90
2017-09-24T11:18:25.321Z,16.88
2017-09-24T11:20:56.664Z,16.62
2017-09-24T11:23:25.871Z,16.74
2017-09-24T11:25:57.252Z,15.86
2017-09-24T11:28:26.629Z,15.78
2017-09-24T11:30:56.734Z,15.56
2017-09-24T11:33:26.359Z,15.85
2017-09-24T11:35:57.015Z,15.54
2017-09-24T11:38:26.237Z,16.11
2017-09-24T11:40:56.986Z,15.52
2017-09-24T11:43:26.111Z,15.64
2017-09-24T11:45:57.755Z,15.52
2017-09-24T11:48:27.233Z,15.90
2017-09-24T11:50:57.287Z,15.77
2017-09-24T11:53:26.552Z,15.65
2017-09-24T11:55:59.401Z,15.69
2017-09-24T11:58:29.319Z,15.95
2017-09-24T12:00:59.487Z,16.54
2017-09-24T12:03:29.149Z,16.91
2017-09-24T12:06:01.450Z,17.00
2017-09-24T12:08:34.027Z,17.38
2017-09-24T12:11:03.652Z,17.47
2017-09-24T12:13:32.857Z,17.69
2017-09-24T12:16:02.130Z,18.45
2017-09-24T12:18:31.666Z,18.20
2017-09-24T12:21:00.904Z,18.61
2017-09-24T12:23:30.067Z,18.20
2017-09-24T12:26:01.299Z,17.93
2017-09-24T12:28:30.575Z,17.96
2017-09-24T12:30:59.792Z,17.74
2017-09-24T12:33:29.316Z,17.78
2017-09-24T12:35:59.591Z,17.53
2017-09-24T12:38:28.850Z,17.30
2017-09-24T12:40:59.695Z,17.21
2017-09-24T12:43:29.013Z,17.23
2017-09-24T12:45:59.959Z,16.80
2017-09-24T12:48:30.043Z,16.43
2017-09-24T12:51:00.239Z,15.95
2017-09-24T12:53:29.502Z,16.45
2017-09-24T12:56:00.474Z,16.27
2017-09-24T12:58:29.699Z,16.17
2017-09-24T13:01:02.617Z,15.80
2017-09-24T13:03:31.864Z,15.87
2017-09-24T13:06:01.034Z,15.77
2017-09-24T13:08:30.636Z,15.92
2017-09-24T13:11:01.667Z,15.80
2017-09-24T13:13:30.916Z,15.52
2017-09-24T13:16:01.668Z,15.71
2017-09-24T13:18:30.963Z,15.66
2017-09-24T13:21:01.587Z,15.66
2017-09-24T13:23:31.704Z,15.72
2017-09-24T13:26:01.693Z,15.80
2017-09-24T13:28:34.328Z,15.73
2017-09-24T13:31:03.822Z,15.63
2017-09-24T13:33:33.673Z,15.58
2017-09-24T13:36:02.840Z,15.64
2017-09-24T13:38:32.680Z,15.65
2017-09-24T13:41:02.374Z,15.64
2017-09-24T13:43:31.605Z,15.61
2017-09-24T13:46:02.808Z,15.73
2017-09-24T13:48:32.082Z,15.68
2017-09-24T13:51:01.302Z,15.64
2017-09-24T13:53:30.882Z,15.71
2017-09-24T13:56:02.104Z,15.73
2017-09-24T13:58:31.651Z,15.74
2017-09-24T14:01:04.877Z,15.95
2017-09-24T14:03:34.146Z,16.07
2017-09-24T14:06:03.710Z,16.38
2017-09-24T14:08:33.251Z,16.04
2017-09-24T14:11:04.186Z,16.15
2017-09-24T14:13:33.500Z,15.94
2017-09-24T14:16:06.104Z,16.12
2017-09-24T14:18:35.430Z,15.84
2017-09-24T14:21:04.844Z,15.85
2017-09-24T14:23:34.414Z,15.75
2017-09-24T14:26:05.152Z,15.96
2017-09-24T14:28:34.478Z,16.46
2017-09-24T14:31:04.914Z,16.06
2017-09-24T14:33:34.262Z,16.18
2017-09-24T14:36:06.504Z,16.39
2017-09-24T14:38:36.021Z,16.59
2017-09-24T14:41:05.806Z,16.18
2017-09-24T14:43:35.143Z,16.58
2017-09-24T14:46:07.853Z,15.97
2017-09-24T14:48:37.093Z,16.18
2017-09-24T14:51:06.647Z,16.01
2017-09-24T14:53:36.178Z,16.15
2017-09-24T14:56:06.054Z,16.19
2017-09-24T14:58:35.423Z,16.02
2017-09-24T15:01:07.004Z,15.82
2017-09-24T15:03:36.359Z,15.73
2017-09-24T15:06:07.143Z,15.83
2017-09-24T15:08:37.563Z,16.12
2017-09-24T15:11:07.342Z,16.15
2017-09-24T15:13:36.858Z,16.03
2017-09-24T15:16:07.423Z,16.14
2017-09-24T15:18:37.050Z,16.00
2017-09-24T15:21:07.231Z,15.75
2017-09-24T15:23:36.967Z,15.73
2017-09-24T15:26:07.661Z,15.80
2017-09-24T15:28:36.911Z,15.76
2017-09-24T15:31:08.307Z,15.65
2017-09-24T15:33:37.682Z,15.59
2017-09-24T15:36:08.170Z,15.75
2017-09-24T15:38:37.751Z,15.61
2017-09-24T15:41:07.975Z,15.65
2017-09-24T15:43:37.302Z,15.57
2017-09-24T15:46:08.398Z,15.55
2017-09-24T15:48:37.904Z,15.54
2017-09-24T15:51:09.278Z,15.60
2017-09-24T15:53:38.768Z,15.56
2017-09-24T15:56:08.774Z,15.55
2017-09-24T15:58:39.126Z,15.52
2017-09-24T16:01:09.391Z,15.48
2017-09-24T16:03:39.027Z,15.46
2017-09-24T16:06:09.563Z,15.48
2017-09-24T16:08:38.952Z,15.74
2017-09-24T16:11:11.808Z,15.58
2017-09-24T16:13:45.483Z,15.58
2017-09-24T16:16:14.763Z,15.46
2017-09-24T16:18:44.371Z,15.53
2017-09-24T16:21:13.602Z,15.47
2017-09-24T16:23:42.783Z,15.47
2017-09-24T16:26:15.994Z,15.35
2017-09-24T16:28:47.681Z,15.41
2017-09-24T16:31:16.998Z,15.15
2017-09-24T16:33:46.613Z,15.13
2017-09-24T16:36:16.317Z,15.13
2017-09-24T16:38:45.790Z,15.12
2017-09-24T16:41:15.325Z,15.00
2017-09-24T16:43:44.706Z,15.01
2017-09-24T16:46:13.986Z,15.00
2017-09-24T16:48:44.030Z,14.91
2017-09-24T16:51:13.260Z,14.83
2017-09-24T16:53:42.658Z,14.76
2017-09-24T16:56:12.086Z,14.82
2017-09-24T16:58:41.383Z,14.88
2017-09-24T17:01:13.142Z,14.94
2017-09-24T17:03:42.982Z,14.88
2017-09-24T17:06:12.695Z,14.89
2017-09-24T17:08:42.399Z,14.84
2017-09-24T17:11:14.882Z,14.77
2017-09-24T17:13:44.246Z,14.67
2017-09-24T17:16:13.531Z,14.80
2017-09-24T17:18:43.237Z,14.77
2017-09-24T17:21:12.919Z,14.55
2017-09-24T17:23:42.241Z,14.61
2017-09-24T17:26:13.785Z,14.67
2017-09-24T17:28:42.962Z,14.71
2017-09-24T17:31:13.670Z,14.72
2017-09-24T17:33:43.198Z,14.63
2017-09-24T17:36:13.785Z,14.71
2017-09-24T17:38:43.151Z,14.58
2017-09-24T17:41:20.223Z,14.60
2017-09-24T17:43:49.810Z,14.53
2017-09-24T17:46:21.678Z,14.45
2017-09-24T17:48:51.280Z,14.61
2017-09-24T17:51:21.110Z,14.66
2017-09-24T17:53:50.378Z,14.60
2017-09-24T17:56:20.064Z,14.52
2017-09-24T17:58:49.666Z,14.53
2017-09-24T18:01:19.031Z,14.59
2017-09-24T18:03:48.738Z,14.37
2017-09-24T18:06:18.098Z,14.40
2017-09-24T18:08:47.331Z,14.39
2017-09-24T18:11:16.896Z,14.40
2017-09-24T18:13:46.170Z,14.32
2017-09-24T18:16:16.255Z,14.26
2017-09-24T18:18:46.215Z,14.35
2017-09-24T18:21:16.309Z,14.41
2017-09-24T18:23:45.584Z,14.40
2017-09-24T18:26:17.108Z,14.44
2017-09-24T18:28:46.290Z,14.04
2017-09-24T18:31:17.114Z,13.95
2017-09-24T18:33:46.586Z,13.88
2017-09-24T18:36:17.373Z,13.78
2017-09-24T18:38:46.678Z,13.88
2017-09-24T18:41:17.434Z,13.77
2017-09-24T18:43:46.655Z,14.07
2017-09-24T18:46:17.367Z,14.02
2017-09-24T18:48:46.901Z,14.08
2017-09-24T18:51:17.660Z,13.84
2017-09-24T18:53:47.113Z,14.06
2017-09-24T18:56:18.513Z,14.13
2017-09-24T18:58:47.714Z,13.82
2017-09-24T19:01:18.646Z,13.90
2017-09-24T19:03:48.697Z,13.55
2017-09-24T19:06:18.631Z,13.67
2017-09-24T19:08:48.003Z,13.86
2017-09-24T19:11:19.081Z,14.04
2017-09-24T19:13:48.382Z,14.02
2017-09-24T19:16:18.996Z,14.08
2017-09-24T19:18:48.686Z,13.81
2017-09-24T19:21:19.936Z,13.78
2017-09-24T19:23:49.750Z,13.64
2017-09-24T19:26:19.550Z,13.71
2017-09-24T19:28:48.871Z,13.53
2017-09-24T19:31:18.554Z,13.51
2017-09-24T19:33:48.082Z,13.62
2017-09-24T19:36:18.682Z,13.46
2017-09-24T19:38:48.400Z,13.81
2017-09-24T19:41:19.297Z,13.59
2017-09-24T19:43:48.726Z,13.78
2017-09-24T19:46:19.866Z,13.49
2017-09-24T19:48:49.465Z,13.52
2017-09-24T19:51:22.587Z,13.55
2017-09-24T19:53:52.135Z,13.49
2017-09-24T19:56:21.406Z,13.35
2017-09-24T19:58:51.762Z,13.37
2017-09-24T20:01:22.527Z,13.33
2017-09-24T20:03:51.837Z,13.34
2017-09-24T20:06:23.090Z,13.36
2017-09-24T20:08:52.847Z,13.33
2017-09-24T20:11:22.123Z,13.40
2017-09-24T20:13:51.835Z,13.35
2017-09-24T20:16:21.628Z,13.22
2017-09-24T20:18:50.987Z,13.17
2017-09-24T20:21:20.415Z,13.26
2017-09-24T20:23:50.099Z,13.13
2017-09-24T20:26:19.346Z,13.24
2017-09-24T20:28:48.595Z,13.16
2017-09-24T20:31:18.435Z,13.28
2017-09-24T20:33:47.743Z,13.18
2017-09-24T20:36:17.254Z,13.07
2017-09-24T20:38:46.935Z,13.15
2017-09-24T20:41:16.088Z,13.13
2017-09-24T20:43:45.343Z,13.19
2017-09-24T20:46:15.127Z,13.12
2017-09-24T20:48:44.892Z,13.25
2017-09-24T20:51:14.118Z,13.45
2017-09-24T20:53:43.998Z,13.17
2017-09-24T20:56:13.550Z,13.43
2017-09-24T20:58:42.825Z,13.19
2017-09-24T21:01:12.263Z,13.10
2017-09-24T21:03:41.610Z,13.21
2017-09-24T21:06:10.924Z,13.14
2017-09-24T21:08:40.615Z,13.50
2017-09-24T21:11:09.774Z,13.58
2017-09-24T21:13:38.930Z,13.63
2017-09-24T21:16:08.530Z,13.41
2017-09-24T21:18:38.019Z,13.55
2017-09-24T21:21:07.391Z,13.82
2017-09-24T21:23:37.167Z,13.90
2017-09-24T21:26:06.399Z,13.91
2017-09-24T21:28:35.611Z,13.90
2017-09-24T21:31:05.064Z,13.98
2017-09-24T21:33:34.478Z,13.94
2017-09-24T21:36:04.911Z,13.70
2017-09-24T21:38:34.766Z,13.45
2017-09-24T21:41:04.355Z,13.53
2017-09-24T21:43:33.853Z,13.40
2017-09-24T21:46:03.834Z,13.64
2017-09-24T21:48:33.228Z,13.65
2017-09-24T21:51:02.606Z,13.48
2017-09-24T21:53:34.328Z,13.49
2017-09-24T21:56:04.094Z,13.55
2017-09-24T21:58:33.809Z,13.67
2017-09-24T22:01:03.584Z,13.84
2017-09-24T22:03:33.183Z,13.68
2017-09-24T22:06:02.809Z,13.51
2017-09-24T22:08:32.346Z,13.37
2017-09-24T22:11:02.199Z,13.37
2017-09-24T22:13:31.787Z,13.41
2017-09-24T22:16:01.290Z,13.18
2017-09-24T22:18:30.495Z,13.33
2017-09-24T22:20:59.750Z,13.31
2017-09-24T22:23:29.238Z,13.24
2017-09-24T22:25:58.874Z,13.21
2017-09-24T22:28:29.050Z,13.22
2017-09-24T22:30:59.360Z,13.17
2017-09-24T22:33:28.774Z,13.19
2017-09-24T22:35:58.039Z,13.18
2017-09-24T22:38:28.230Z,13.42
2017-09-24T22:40:58.033Z,13.35
2017-09-24T22:43:27.457Z,13.42
2017-09-24T22:45:57.578Z,13.28
2017-09-24T22:48:27.242Z,13.28
2017-09-24T22:50:56.605Z,13.30
2017-09-24T22:53:26.421Z,13.30
2017-09-24T22:55:56.143Z,13.39
2017-09-24T22:58:25.588Z,13.28
2017-09-24T23:00:55.500Z,13.15
2017-09-24T23:03:25.179Z,13.18
2017-09-24T23:05:54.523Z,13.35
2017-09-24T23:08:24.358Z,13.30
2017-09-24T23:10:58.392Z,13.30
2017-09-24T23:13:27.874Z,13.31
2017-09-24T23:15:57.641Z,13.43
2017-09-24T23:18:27.335Z,13.25
2017-09-24T23:20:57.011Z,13.14
2017-09-24T23:23:26.595Z,13.22
2017-09-24T23:25:56.023Z,13.06
2017-09-24T23:28:25.511Z,13.07
2017-09-24T23:30:55.314Z,13.12
2017-09-24T23:33:24.849Z,13.04
2017-09-24T23:35:54.499Z,13.07
2017-09-24T23:38:24.733Z,13.07
2017-09-24T23:40:54.243Z,13.04
2017-09-24T23:43:23.914Z,13.04
2017-09-24T23:45:53.601Z,13.04
2017-09-24T23:48:23.942Z,13.10
2017-09-24T23:50:53.427Z,13.06
2017-09-24T23:53:22.818Z,13.01
2017-09-24T23:55:52.698Z,13.06
2017-09-24T23:58:22.297Z,13.02
